sensor_id;sensor_type;location;lat;lon;timestamp;P1;durP1;ratioP1;P2;durP2;ratioP2
12707;SDS011;6418;50.824;4.718;2022-10-16T00:00:48;10.27;;;4.23;;
12707;SDS011;6418;50.824;4.718;2022-10-16T00:03:15;10.77;;;4.30;;
12707;SDS011;6418;50.824;4.718;2022-10-16T00:05:42;11.03;;;4.13;;
12707;SDS011;6418;50.824;4.718;2022-10-16T00:08:10;9.07;;;4.33;;
12707;SDS011;6418;50.824;4.718;2022-10-16T00:10:38;10.87;;;4.20;;
12707;SDS011;6418;50.824;4.718;2022-10-16T00:13:07;9.37;;;4.17;;
12707;SDS011;6418;50.824;4.718;2022-10-16T00:15:34;8.37;;;4.23;;
12707;SDS011;6418;50.824;4.718;2022-10-16T00:18:02;10.50;;;3.90;;
12707;SDS011;6418;50.824;4.718;2022-10-16T00:20:30;10.07;;;4.40;;
12707;SDS011;6418;50.824;4.718;2022-10-16T00:23:01;8.90;;;4.10;;
12707;SDS011;6418;50.824;4.718;2022-10-16T00:25:29;11.03;;;4.53;;
12707;SDS011;6418;50.824;4.718;2022-10-16T00:27:57;8.40;;;4.10;;
12707;SDS011;6418;50.824;4.718;2022-10-16T00:30:26;9.03;;;3.97;;
12707;SDS011;6418;50.824;4.718;2022-10-16T00:32:54;8.37;;;3.83;;
12707;SDS011;6418;50.824;4.718;2022-10-16T00:35:21;9.47;;;3.73;;
12707;SDS011;6418;50.824;4.718;2022-10-16T00:37:47;10.57;;;4.03;;
12707;SDS011;6418;50.824;4.718;2022-10-16T00:40:14;7.03;;;3.83;;
12707;SDS011;6418;50.824;4.718;2022-10-16T00:42:41;12.43;;;4.00;;
12707;SDS011;6418;50.824;4.718;2022-10-16T00:45:08;7.20;;;3.70;;
12707;SDS011;6418;50.824;4.718;2022-10-16T00:47:38;6.93;;;3.90;;
12707;SDS011;6418;50.824;4.718;2022-10-16T00:50:10;8.50;;;3.73;;
12707;SDS011;6418;50.824;4.718;2022-10-16T00:52:44;5.97;;;3.43;;
12707;SDS011;6418;50.824;4.718;2022-10-16T00:55:14;9.27;;;3.80;;
12707;SDS011;6418;50.824;4.718;2022-10-16T00:57:41;5.30;;;3.30;;
12707;SDS011;6418;50.824;4.718;2022-10-16T01:00:10;6.60;;;3.40;;
12707;SDS011;6418;50.824;4.718;2022-10-16T01:02:42;7.43;;;3.53;;
12707;SDS011;6418;50.824;4.718;2022-10-16T01:05:08;6.10;;;3.27;;
12707;SDS011;6418;50.824;4.718;2022-10-16T01:07:38;5.77;;;3.10;;
12707;SDS011;6418;50.824;4.718;2022-10-16T01:10:13;6.87;;;3.53;;
12707;SDS011;6418;50.824;4.718;2022-10-16T01:12:51;9.23;;;3.40;;
12707;SDS011;6418;50.824;4.718;2022-10-16T01:15:25;7.70;;;3.53;;
12707;SDS011;6418;50.824;4.718;2022-10-16T01:17:58;5.53;;;3.27;;
12707;SDS011;6418;50.824;4.718;2022-10-16T01:20:30;7.90;;;4.00;;
12707;SDS011;6418;50.824;4.718;2022-10-16T01:23:05;7.07;;;3.23;;
12707;SDS011;6418;50.824;4.718;2022-10-16T01:28:36;4.77;;;3.00;;
12707;SDS011;6418;50.824;4.718;2022-10-16T01:31:07;8.10;;;3.50;;
12707;SDS011;6418;50.824;4.718;2022-10-16T01:33:38;5.60;;;3.40;;
12707;SDS011;6418;50.824;4.718;2022-10-16T01:36:10;4.83;;;3.07;;
12707;SDS011;6418;50.824;4.718;2022-10-16T01:38:40;8.30;;;3.67;;
12707;SDS011;6418;50.824;4.718;2022-10-16T01:41:10;4.43;;;3.40;;
12707;SDS011;6418;50.824;4.718;2022-10-16T01:43:40;5.43;;;3.30;;
12707;SDS011;6418;50.824;4.718;2022-10-16T01:46:11;5.13;;;3.20;;
12707;SDS011;6418;50.824;4.718;2022-10-16T01:48:42;4.40;;;3.07;;
12707;SDS011;6418;50.824;4.718;2022-10-16T01:51:09;4.97;;;3.20;;
12707;SDS011;6418;50.824;4.718;2022-10-16T01:53:39;3.83;;;3.00;;
12707;SDS011;6418;50.824;4.718;2022-10-16T01:56:10;5.47;;;2.83;;
12707;SDS011;6418;50.824;4.718;2022-10-16T01:58:42;7.13;;;3.20;;
12707;SDS011;6418;50.824;4.718;2022-10-16T02:01:13;8.03;;;3.47;;
12707;SDS011;6418;50.824;4.718;2022-10-16T02:03:44;6.77;;;3.50;;
12707;SDS011;6418;50.824;4.718;2022-10-16T02:06:16;5.17;;;3.60;;
12707;SDS011;6418;50.824;4.718;2022-10-16T02:08:43;6.13;;;3.27;;
12707;SDS011;6418;50.824;4.718;2022-10-16T02:11:10;5.87;;;3.30;;
12707;SDS011;6418;50.824;4.718;2022-10-16T02:13:39;5.47;;;3.20;;
12707;SDS011;6418;50.824;4.718;2022-10-16T02:16:10;7.73;;;3.57;;
12707;SDS011;6418;50.824;4.718;2022-10-16T02:18:39;6.13;;;3.40;;
12707;SDS011;6418;50.824;4.718;2022-10-16T02:21:08;6.30;;;3.50;;
12707;SDS011;6418;50.824;4.718;2022-10-16T02:23:43;5.77;;;3.27;;
12707;SDS011;6418;50.824;4.718;2022-10-16T02:26:23;4.93;;;3.50;;
12707;SDS011;6418;50.824;4.718;2022-10-16T02:28:57;6.43;;;3.50;;
12707;SDS011;6418;50.824;4.718;2022-10-16T02:31:30;7.40;;;3.80;;
12707;SDS011;6418;50.824;4.718;2022-10-16T02:34:01;5.70;;;3.60;;
12707;SDS011;6418;50.824;4.718;2022-10-16T02:36:30;6.03;;;3.37;;
12707;SDS011;6418;50.824;4.718;2022-10-16T02:38:58;6.20;;;3.30;;
12707;SDS011;6418;50.824;4.718;2022-10-16T02:41:26;5.97;;;3.63;;
12707;SDS011;6418;50.824;4.718;2022-10-16T02:43:54;4.27;;;3.30;;
12707;SDS011;6418;50.824;4.718;2022-10-16T02:46:22;7.10;;;3.50;;
12707;SDS011;6418;50.824;4.718;2022-10-16T02:48:49;7.33;;;3.80;;
12707;SDS011;6418;50.824;4.718;2022-10-16T02:51:16;5.70;;;3.50;;
12707;SDS011;6418;50.824;4.718;2022-10-16T02:53:43;6.10;;;3.47;;
12707;SDS011;6418;50.824;4.718;2022-10-16T02:56:09;5.43;;;3.37;;
12707;SDS011;6418;50.824;4.718;2022-10-16T02:58:36;8.43;;;3.90;;
12707;SDS011;6418;50.824;4.718;2022-10-16T03:01:03;5.17;;;3.60;;
12707;SDS011;6418;50.824;4.718;2022-10-16T03:03:32;5.87;;;3.63;;
12707;SDS011;6418;50.824;4.718;2022-10-16T03:05:58;10.20;;;3.70;;
12707;SDS011;6418;50.824;4.718;2022-10-16T03:08:25;5.57;;;3.47;;
12707;SDS011;6418;50.824;4.718;2022-10-16T03:10:52;9.47;;;3.40;;
12707;SDS011;6418;50.824;4.718;2022-10-16T03:13:19;5.03;;;3.63;;
12707;SDS011;6418;50.824;4.718;2022-10-16T03:15:46;6.67;;;3.80;;
12707;SDS011;6418;50.824;4.718;2022-10-16T03:18:14;6.90;;;3.70;;
12707;SDS011;6418;50.824;4.718;2022-10-16T03:20:43;6.23;;;3.60;;
12707;SDS011;6418;50.824;4.718;2022-10-16T03:23:10;6.83;;;3.47;;
12707;SDS011;6418;50.824;4.718;2022-10-16T03:25:37;6.10;;;4.00;;
12707;SDS011;6418;50.824;4.718;2022-10-16T03:28:04;9.90;;;4.00;;
12707;SDS011;6418;50.824;4.718;2022-10-16T03:30:31;6.73;;;3.67;;
12707;SDS011;6418;50.824;4.718;2022-10-16T03:32:58;8.07;;;4.00;;
12707;SDS011;6418;50.824;4.718;2022-10-16T03:35:25;9.13;;;3.83;;
12707;SDS011;6418;50.824;4.718;2022-10-16T03:37:53;8.50;;;4.17;;
12707;SDS011;6418;50.824;4.718;2022-10-16T03:40:21;8.13;;;4.00;;
12707;SDS011;6418;50.824;4.718;2022-10-16T03:42:48;7.20;;;3.90;;
12707;SDS011;6418;50.824;4.718;2022-10-16T03:45:15;12.03;;;4.40;;
12707;SDS011;6418;50.824;4.718;2022-10-16T03:47:42;12.70;;;4.43;;
12707;SDS011;6418;50.824;4.718;2022-10-16T03:50:09;10.83;;;4.33;;
12707;SDS011;6418;50.824;4.718;2022-10-16T03:52:36;9.80;;;4.40;;
12707;SDS011;6418;50.824;4.718;2022-10-16T03:55:05;11.97;;;4.60;;
12707;SDS011;6418;50.824;4.718;2022-10-16T03:57:32;9.43;;;4.63;;
12707;SDS011;6418;50.824;4.718;2022-10-16T03:59:59;10.83;;;4.80;;
12707;SDS011;6418;50.824;4.718;2022-10-16T04:02:26;11.63;;;4.93;;
12707;SDS011;6418;50.824;4.718;2022-10-16T04:04:53;13.30;;;5.23;;
12707;SDS011;6418;50.824;4.718;2022-10-16T04:07:20;12.90;;;5.00;;
12707;SDS011;6418;50.824;4.718;2022-10-16T04:09:47;12.07;;;5.37;;
12707;SDS011;6418;50.824;4.718;2022-10-16T04:12:15;12.13;;;5.00;;
12707;SDS011;6418;50.824;4.718;2022-10-16T04:14:42;13.13;;;5.10;;
12707;SDS011;6418;50.824;4.718;2022-10-16T04:17:09;13.63;;;5.47;;
12707;SDS011;6418;50.824;4.718;2022-10-16T04:19:35;15.87;;;5.50;;
12707;SDS011;6418;50.824;4.718;2022-10-16T04:22:02;15.97;;;5.87;;
12707;SDS011;6418;50.824;4.718;2022-10-16T04:24:29;14.33;;;5.67;;
12707;SDS011;6418;50.824;4.718;2022-10-16T04:26:56;12.70;;;5.60;;
12707;SDS011;6418;50.824;4.718;2022-10-16T04:29:24;15.77;;;5.40;;
12707;SDS011;6418;50.824;4.718;2022-10-16T04:31:51;11.77;;;5.73;;
12707;SDS011;6418;50.824;4.718;2022-10-16T04:34:18;11.50;;;5.80;;
12707;SDS011;6418;50.824;4.718;2022-10-16T04:36:46;11.20;;;5.50;;
12707;SDS011;6418;50.824;4.718;2022-10-16T04:39:13;12.73;;;5.33;;
12707;SDS011;6418;50.824;4.718;2022-10-16T04:41:40;13.00;;;5.30;;
12707;SDS011;6418;50.824;4.718;2022-10-16T04:44:07;16.97;;;5.63;;
12707;SDS011;6418;50.824;4.718;2022-10-16T04:46:35;15.57;;;5.30;;
12707;SDS011;6418;50.824;4.718;2022-10-16T04:49:02;12.60;;;5.40;;
12707;SDS011;6418;50.824;4.718;2022-10-16T04:51:29;12.53;;;5.90;;
12707;SDS011;6418;50.824;4.718;2022-10-16T04:53:56;11.80;;;5.03;;
12707;SDS011;6418;50.824;4.718;2022-10-16T04:56:23;12.50;;;5.30;;
12707;SDS011;6418;50.824;4.718;2022-10-16T04:58:50;13.10;;;5.30;;
12707;SDS011;6418;50.824;4.718;2022-10-16T05:01:16;12.57;;;5.20;;
12707;SDS011;6418;50.824;4.718;2022-10-16T05:03:45;11.17;;;5.17;;
12707;SDS011;6418;50.824;4.718;2022-10-16T05:06:12;13.27;;;5.70;;
12707;SDS011;6418;50.824;4.718;2022-10-16T05:08:39;12.17;;;5.47;;
12707;SDS011;6418;50.824;4.718;2022-10-16T05:11:05;12.60;;;5.60;;
12707;SDS011;6418;50.824;4.718;2022-10-16T05:13:32;14.47;;;5.67;;
12707;SDS011;6418;50.824;4.718;2022-10-16T05:15:59;12.90;;;5.60;;
12707;SDS011;6418;50.824;4.718;2022-10-16T05:18:26;11.27;;;5.13;;
12707;SDS011;6418;50.824;4.718;2022-10-16T05:20:54;14.30;;;5.77;;
12707;SDS011;6418;50.824;4.718;2022-10-16T05:23:22;15.37;;;5.57;;
12707;SDS011;6418;50.824;4.718;2022-10-16T05:25:52;11.90;;;5.90;;
12707;SDS011;6418;50.824;4.718;2022-10-16T05:28:20;10.87;;;5.20;;
12707;SDS011;6418;50.824;4.718;2022-10-16T05:30:47;12.80;;;5.77;;
12707;SDS011;6418;50.824;4.718;2022-10-16T05:33:14;12.20;;;5.90;;
12707;SDS011;6418;50.824;4.718;2022-10-16T05:35:41;12.57;;;6.03;;
12707;SDS011;6418;50.824;4.718;2022-10-16T05:38:10;11.63;;;5.83;;
12707;SDS011;6418;50.824;4.718;2022-10-16T05:40:37;14.80;;;5.50;;
12707;SDS011;6418;50.824;4.718;2022-10-16T05:43:04;11.90;;;5.00;;
12707;SDS011;6418;50.824;4.718;2022-10-16T05:45:31;12.77;;;5.63;;
12707;SDS011;6418;50.824;4.718;2022-10-16T05:47:59;12.43;;;5.83;;
12707;SDS011;6418;50.824;4.718;2022-10-16T05:50:26;12.90;;;5.63;;
12707;SDS011;6418;50.824;4.718;2022-10-16T05:52:53;15.73;;;5.73;;
12707;SDS011;6418;50.824;4.718;2022-10-16T05:55:21;12.80;;;5.40;;
12707;SDS011;6418;50.824;4.718;2022-10-16T05:57:48;10.97;;;5.47;;
12707;SDS011;6418;50.824;4.718;2022-10-16T06:00:15;15.07;;;6.23;;
12707;SDS011;6418;50.824;4.718;2022-10-16T06:02:42;12.70;;;5.80;;
12707;SDS011;6418;50.824;4.718;2022-10-16T06:05:09;12.07;;;5.90;;
12707;SDS011;6418;50.824;4.718;2022-10-16T06:07:36;13.87;;;5.90;;
12707;SDS011;6418;50.824;4.718;2022-10-16T06:10:03;12.70;;;6.43;;
12707;SDS011;6418;50.824;4.718;2022-10-16T06:12:32;12.33;;;5.87;;
12707;SDS011;6418;50.824;4.718;2022-10-16T06:14:59;13.40;;;6.37;;
12707;SDS011;6418;50.824;4.718;2022-10-16T06:17:26;14.73;;;6.30;;
12707;SDS011;6418;50.824;4.718;2022-10-16T06:19:53;12.80;;;6.60;;
12707;SDS011;6418;50.824;4.718;2022-10-16T06:22:20;15.83;;;6.43;;
12707;SDS011;6418;50.824;4.718;2022-10-16T06:24:47;12.93;;;6.20;;
12707;SDS011;6418;50.824;4.718;2022-10-16T06:27:14;15.77;;;6.87;;
12707;SDS011;6418;50.824;4.718;2022-10-16T06:29:43;16.40;;;6.87;;
12707;SDS011;6418;50.824;4.718;2022-10-16T06:32:10;14.53;;;6.50;;
12707;SDS011;6418;50.824;4.718;2022-10-16T06:34:37;17.40;;;7.10;;
12707;SDS011;6418;50.824;4.718;2022-10-16T06:37:05;14.77;;;6.50;;
12707;SDS011;6418;50.824;4.718;2022-10-16T06:39:31;17.20;;;6.70;;
12707;SDS011;6418;50.824;4.718;2022-10-16T06:41:58;15.90;;;7.10;;
12707;SDS011;6418;50.824;4.718;2022-10-16T06:44:25;15.23;;;7.00;;
12707;SDS011;6418;50.824;4.718;2022-10-16T06:46:53;15.83;;;7.50;;
12707;SDS011;6418;50.824;4.718;2022-10-16T06:49:20;19.80;;;7.50;;
12707;SDS011;6418;50.824;4.718;2022-10-16T06:51:47;14.17;;;7.17;;
12707;SDS011;6418;50.824;4.718;2022-10-16T06:54:14;14.67;;;6.70;;
12707;SDS011;6418;50.824;4.718;2022-10-16T06:56:42;14.03;;;7.00;;
12707;SDS011;6418;50.824;4.718;2022-10-16T06:59:10;14.90;;;7.30;;
12707;SDS011;6418;50.824;4.718;2022-10-16T07:01:37;15.33;;;7.07;;
12707;SDS011;6418;50.824;4.718;2022-10-16T07:04:05;14.93;;;6.93;;
12707;SDS011;6418;50.824;4.718;2022-10-16T07:06:33;16.50;;;6.77;;
12707;SDS011;6418;50.824;4.718;2022-10-16T07:09:01;15.77;;;6.87;;
12707;SDS011;6418;50.824;4.718;2022-10-16T07:11:30;16.47;;;6.93;;
12707;SDS011;6418;50.824;4.718;2022-10-16T07:13:57;14.77;;;6.63;;
12707;SDS011;6418;50.824;4.718;2022-10-16T07:16:24;16.97;;;7.00;;
12707;SDS011;6418;50.824;4.718;2022-10-16T07:18:53;12.07;;;6.30;;
12707;SDS011;6418;50.824;4.718;2022-10-16T07:21:25;14.33;;;7.30;;
12707;SDS011;6418;50.824;4.718;2022-10-16T07:23:54;15.87;;;6.83;;
12707;SDS011;6418;50.824;4.718;2022-10-16T07:26:22;13.23;;;7.00;;
12707;SDS011;6418;50.824;4.718;2022-10-16T07:28:50;14.73;;;6.70;;
12707;SDS011;6418;50.824;4.718;2022-10-16T07:31:18;12.20;;;6.53;;
12707;SDS011;6418;50.824;4.718;2022-10-16T07:33:46;13.30;;;6.33;;
12707;SDS011;6418;50.824;4.718;2022-10-16T07:36:14;14.90;;;6.67;;
12707;SDS011;6418;50.824;4.718;2022-10-16T07:38:44;12.47;;;6.53;;
12707;SDS011;6418;50.824;4.718;2022-10-16T07:41:12;12.90;;;6.40;;
12707;SDS011;6418;50.824;4.718;2022-10-16T07:43:40;12.23;;;6.00;;
12707;SDS011;6418;50.824;4.718;2022-10-16T07:46:11;14.40;;;6.43;;
12707;SDS011;6418;50.824;4.718;2022-10-16T07:48:38;13.17;;;6.10;;
12707;SDS011;6418;50.824;4.718;2022-10-16T07:51:05;13.57;;;6.37;;
12707;SDS011;6418;50.824;4.718;2022-10-16T07:53:33;9.73;;;5.50;;
12707;SDS011;6418;50.824;4.718;2022-10-16T07:56:02;14.77;;;6.30;;
12707;SDS011;6418;50.824;4.718;2022-10-16T07:58:30;14.33;;;5.70;;
12707;SDS011;6418;50.824;4.718;2022-10-16T08:00:58;10.47;;;5.43;;
12707;SDS011;6418;50.824;4.718;2022-10-16T08:03:25;11.70;;;5.70;;
12707;SDS011;6418;50.824;4.718;2022-10-16T08:05:52;13.17;;;5.40;;
12707;SDS011;6418;50.824;4.718;2022-10-16T08:08:19;10.97;;;5.03;;
12707;SDS011;6418;50.824;4.718;2022-10-16T08:10:46;12.80;;;5.40;;
12707;SDS011;6418;50.824;4.718;2022-10-16T08:13:14;9.00;;;5.13;;
12707;SDS011;6418;50.824;4.718;2022-10-16T08:15:41;9.17;;;4.80;;
12707;SDS011;6418;50.824;4.718;2022-10-16T08:18:09;11.60;;;5.03;;
12707;SDS011;6418;50.824;4.718;2022-10-16T08:20:36;7.40;;;4.80;;
12707;SDS011;6418;50.824;4.718;2022-10-16T08:23:04;9.37;;;4.93;;
12707;SDS011;6418;50.824;4.718;2022-10-16T08:25:33;9.00;;;4.50;;
12707;SDS011;6418;50.824;4.718;2022-10-16T08:28:02;8.03;;;4.47;;
12707;SDS011;6418;50.824;4.718;2022-10-16T08:30:31;8.00;;;4.50;;
12707;SDS011;6418;50.824;4.718;2022-10-16T08:32:58;9.70;;;4.80;;
12707;SDS011;6418;50.824;4.718;2022-10-16T08:35:25;9.23;;;4.63;;
12707;SDS011;6418;50.824;4.718;2022-10-16T08:37:52;8.63;;;4.10;;
12707;SDS011;6418;50.824;4.718;2022-10-16T08:40:20;10.17;;;4.70;;
12707;SDS011;6418;50.824;4.718;2022-10-16T08:43:00;7.93;;;4.13;;
12707;SDS011;6418;50.824;4.718;2022-10-16T08:45:45;10.50;;;4.40;;
12707;SDS011;6418;50.824;4.718;2022-10-16T08:48:30;10.20;;;4.20;;
12707;SDS011;6418;50.824;4.718;2022-10-16T08:51:02;8.20;;;4.30;;
12707;SDS011;6418;50.824;4.718;2022-10-16T08:53:31;10.50;;;4.50;;
12707;SDS011;6418;50.824;4.718;2022-10-16T08:56:04;9.57;;;3.80;;
12707;SDS011;6418;50.824;4.718;2022-10-16T08:58:31;9.37;;;3.90;;
12707;SDS011;6418;50.824;4.718;2022-10-16T09:01:00;7.87;;;3.90;;
12707;SDS011;6418;50.824;4.718;2022-10-16T09:03:33;8.40;;;3.87;;
12707;SDS011;6418;50.824;4.718;2022-10-16T09:06:22;7.33;;;3.90;;
12707;SDS011;6418;50.824;4.718;2022-10-16T09:09:01;8.43;;;3.80;;
12707;SDS011;6418;50.824;4.718;2022-10-16T09:11:44;9.67;;;3.93;;
12707;SDS011;6418;50.824;4.718;2022-10-16T09:14:20;9.97;;;3.47;;
12707;SDS011;6418;50.824;4.718;2022-10-16T09:17:08;10.60;;;3.90;;
12707;SDS011;6418;50.824;4.718;2022-10-16T09:19:48;5.77;;;3.57;;
12707;SDS011;6418;50.824;4.718;2022-10-16T09:22:21;7.87;;;3.50;;
12707;SDS011;6418;50.824;4.718;2022-10-16T09:24:53;9.17;;;3.57;;
12707;SDS011;6418;50.824;4.718;2022-10-16T09:27:20;7.77;;;3.20;;
12707;SDS011;6418;50.824;4.718;2022-10-16T09:29:48;9.20;;;3.53;;
12707;SDS011;6418;50.824;4.718;2022-10-16T09:32:17;8.03;;;3.53;;
12707;SDS011;6418;50.824;4.718;2022-10-16T09:34:47;6.67;;;2.97;;
12707;SDS011;6418;50.824;4.718;2022-10-16T09:37:18;9.57;;;3.00;;
12707;SDS011;6418;50.824;4.718;2022-10-16T09:39:48;8.20;;;3.47;;
12707;SDS011;6418;50.824;4.718;2022-10-16T09:42:17;8.63;;;2.93;;
12707;SDS011;6418;50.824;4.718;2022-10-16T09:44:47;7.50;;;3.20;;
12707;SDS011;6418;50.824;4.718;2022-10-16T09:47:18;9.90;;;3.50;;
12707;SDS011;6418;50.824;4.718;2022-10-16T09:49:52;6.13;;;3.10;;
12707;SDS011;6418;50.824;4.718;2022-10-16T09:52:21;4.80;;;3.00;;
12707;SDS011;6418;50.824;4.718;2022-10-16T09:54:50;12.93;;;3.30;;
12707;SDS011;6418;50.824;4.718;2022-10-16T09:57:18;7.50;;;3.00;;
12707;SDS011;6418;50.824;4.718;2022-10-16T09:59:46;7.03;;;3.00;;
12707;SDS011;6418;50.824;4.718;2022-10-16T10:02:14;8.17;;;3.30;;
12707;SDS011;6418;50.824;4.718;2022-10-16T10:04:48;4.53;;;2.47;;
12707;SDS011;6418;50.824;4.718;2022-10-16T10:07:20;8.93;;;2.70;;
12707;SDS011;6418;50.824;4.718;2022-10-16T10:09:50;7.87;;;3.20;;
12707;SDS011;6418;50.824;4.718;2022-10-16T10:12:19;6.83;;;3.00;;
12707;SDS011;6418;50.824;4.718;2022-10-16T10:14:48;6.53;;;2.93;;
12707;SDS011;6418;50.824;4.718;2022-10-16T10:17:19;5.90;;;2.80;;
12707;SDS011;6418;50.824;4.718;2022-10-16T10:19:48;5.60;;;2.60;;
12707;SDS011;6418;50.824;4.718;2022-10-16T10:22:25;8.13;;;2.67;;
12707;SDS011;6418;50.824;4.718;2022-10-16T10:24:55;6.17;;;2.83;;
12707;SDS011;6418;50.824;4.718;2022-10-16T10:27:48;6.63;;;2.90;;
12707;SDS011;6418;50.824;4.718;2022-10-16T10:30:35;6.87;;;2.60;;
12707;SDS011;6418;50.824;4.718;2022-10-16T10:33:18;9.00;;;3.13;;
12707;SDS011;6418;50.824;4.718;2022-10-16T10:35:54;6.97;;;2.93;;
12707;SDS011;6418;50.824;4.718;2022-10-16T10:38:29;7.93;;;2.93;;
12707;SDS011;6418;50.824;4.718;2022-10-16T10:41:03;7.63;;;2.80;;
12707;SDS011;6418;50.824;4.718;2022-10-16T10:43:47;8.30;;;2.70;;
12707;SDS011;6418;50.824;4.718;2022-10-16T10:46:23;5.80;;;2.23;;
12707;SDS011;6418;50.824;4.718;2022-10-16T10:49:03;7.07;;;2.47;;
12707;SDS011;6418;50.824;4.718;2022-10-16T10:51:48;4.83;;;2.50;;
12707;SDS011;6418;50.824;4.718;2022-10-16T10:54:24;9.53;;;2.67;;
12707;SDS011;6418;50.824;4.718;2022-10-16T10:56:57;5.07;;;2.00;;
12707;SDS011;6418;50.824;4.718;2022-10-16T10:59:32;7.07;;;2.10;;
12707;SDS011;6418;50.824;4.718;2022-10-16T11:02:13;6.43;;;2.57;;
12707;SDS011;6418;50.824;4.718;2022-10-16T11:04:58;8.20;;;2.50;;
12707;SDS011;6418;50.824;4.718;2022-10-16T11:07:43;7.50;;;2.50;;
12707;SDS011;6418;50.824;4.718;2022-10-16T11:10:16;3.87;;;2.43;;
12707;SDS011;6418;50.824;4.718;2022-10-16T11:12:48;3.70;;;2.03;;
12707;SDS011;6418;50.824;4.718;2022-10-16T11:15:19;5.23;;;2.17;;
12707;SDS011;6418;50.824;4.718;2022-10-16T11:17:50;4.53;;;2.23;;
12707;SDS011;6418;50.824;4.718;2022-10-16T11:20:24;6.50;;;2.40;;
12707;SDS011;6418;50.824;4.718;2022-10-16T11:22:54;5.80;;;2.37;;
12707;SDS011;6418;50.824;4.718;2022-10-16T11:25:24;5.37;;;2.30;;
12707;SDS011;6418;50.824;4.718;2022-10-16T11:27:54;9.47;;;2.47;;
12707;SDS011;6418;50.824;4.718;2022-10-16T11:30:25;6.37;;;2.70;;
12707;SDS011;6418;50.824;4.718;2022-10-16T11:33:02;5.80;;;2.77;;
12707;SDS011;6418;50.824;4.718;2022-10-16T11:35:41;6.97;;;3.07;;
12707;SDS011;6418;50.824;4.718;2022-10-16T11:38:15;4.67;;;2.30;;
12707;SDS011;6418;50.824;4.718;2022-10-16T11:40:51;7.70;;;2.30;;
12707;SDS011;6418;50.824;4.718;2022-10-16T11:43:23;6.40;;;2.33;;
12707;SDS011;6418;50.824;4.718;2022-10-16T11:45:55;9.67;;;2.80;;
12707;SDS011;6418;50.824;4.718;2022-10-16T11:48:26;5.33;;;2.03;;
12707;SDS011;6418;50.824;4.718;2022-10-16T11:51:00;4.33;;;2.43;;
12707;SDS011;6418;50.824;4.718;2022-10-16T11:53:39;5.07;;;2.27;;
12707;SDS011;6418;50.824;4.718;2022-10-16T11:56:12;7.33;;;2.60;;
12707;SDS011;6418;50.824;4.718;2022-10-16T11:58:44;5.00;;;2.63;;
12707;SDS011;6418;50.824;4.718;2022-10-16T12:01:19;7.07;;;2.60;;
12707;SDS011;6418;50.824;4.718;2022-10-16T12:03:56;9.17;;;3.03;;
12707;SDS011;6418;50.824;4.718;2022-10-16T12:06:33;6.10;;;2.50;;
12707;SDS011;6418;50.824;4.718;2022-10-16T12:09:03;9.50;;;2.90;;
12707;SDS011;6418;50.824;4.718;2022-10-16T12:11:32;3.03;;;2.30;;
12707;SDS011;6418;50.824;4.718;2022-10-16T12:14:18;4.23;;;2.10;;
12707;SDS011;6418;50.824;4.718;2022-10-16T12:16:52;6.20;;;2.37;;
12707;SDS011;6418;50.824;4.718;2022-10-16T12:19:20;5.00;;;2.70;;
12707;SDS011;6418;50.824;4.718;2022-10-16T12:21:50;6.13;;;2.30;;
12707;SDS011;6418;50.824;4.718;2022-10-16T12:24:27;6.47;;;2.27;;
12707;SDS011;6418;50.824;4.718;2022-10-16T12:26:59;6.27;;;2.03;;
12707;SDS011;6418;50.824;4.718;2022-10-16T12:29:32;8.83;;;2.50;;
12707;SDS011;6418;50.824;4.718;2022-10-16T12:32:01;5.13;;;2.13;;
12707;SDS011;6418;50.824;4.718;2022-10-16T12:34:33;6.00;;;2.07;;
12707;SDS011;6418;50.824;4.718;2022-10-16T12:37:10;7.00;;;2.10;;
12707;SDS011;6418;50.824;4.718;2022-10-16T12:39:40;5.27;;;2.00;;
12707;SDS011;6418;50.824;4.718;2022-10-16T12:42:19;6.03;;;2.10;;
12707;SDS011;6418;50.824;4.718;2022-10-16T12:44:58;5.63;;;2.17;;
12707;SDS011;6418;50.824;4.718;2022-10-16T12:47:35;6.50;;;2.43;;
12707;SDS011;6418;50.824;4.718;2022-10-16T12:50:21;10.83;;;3.07;;
12707;SDS011;6418;50.824;4.718;2022-10-16T12:52:57;7.00;;;2.50;;
12707;SDS011;6418;50.824;4.718;2022-10-16T12:55:24;4.63;;;2.30;;
12707;SDS011;6418;50.824;4.718;2022-10-16T12:58:05;8.07;;;2.77;;
12707;SDS011;6418;50.824;4.718;2022-10-16T13:00:41;9.77;;;2.93;;
12707;SDS011;6418;50.824;4.718;2022-10-16T13:03:24;7.63;;;2.90;;
12707;SDS011;6418;50.824;4.718;2022-10-16T13:06:13;10.17;;;3.40;;
12707;SDS011;6418;50.824;4.718;2022-10-16T13:08:53;6.73;;;3.03;;
12707;SDS011;6418;50.824;4.718;2022-10-16T13:11:35;5.47;;;2.80;;
12707;SDS011;6418;50.824;4.718;2022-10-16T13:14:28;7.13;;;3.00;;
12707;SDS011;6418;50.824;4.718;2022-10-16T13:17:19;5.50;;;2.80;;
12707;SDS011;6418;50.824;4.718;2022-10-16T13:19:55;9.37;;;3.13;;
12707;SDS011;6418;50.824;4.718;2022-10-16T13:22:33;6.17;;;2.87;;
12707;SDS011;6418;50.824;4.718;2022-10-16T13:25:13;5.47;;;2.73;;
12707;SDS011;6418;50.824;4.718;2022-10-16T13:27:46;4.63;;;2.50;;
12707;SDS011;6418;50.824;4.718;2022-10-16T13:30:20;5.17;;;2.43;;
12707;SDS011;6418;50.824;4.718;2022-10-16T13:32:50;4.53;;;2.57;;
12707;SDS011;6418;50.824;4.718;2022-10-16T13:35:24;7.20;;;2.37;;
12707;SDS011;6418;50.824;4.718;2022-10-16T13:38:03;6.73;;;2.37;;
12707;SDS011;6418;50.824;4.718;2022-10-16T13:40:48;6.33;;;1.93;;
12707;SDS011;6418;50.824;4.718;2022-10-16T13:43:16;4.73;;;2.17;;
12707;SDS011;6418;50.824;4.718;2022-10-16T13:45:52;7.13;;;2.30;;
12707;SDS011;6418;50.824;4.718;2022-10-16T13:48:20;8.43;;;2.80;;
12707;SDS011;6418;50.824;4.718;2022-10-16T13:50:49;4.77;;;2.60;;
12707;SDS011;6418;50.824;4.718;2022-10-16T13:53:25;3.97;;;2.17;;
12707;SDS011;6418;50.824;4.718;2022-10-16T13:55:53;7.70;;;2.55;;
12707;SDS011;6418;50.824;4.718;2022-10-16T13:58:20;3.70;;;2.00;;
12707;SDS011;6418;50.824;4.718;2022-10-16T14:00:54;3.77;;;2.10;;
12707;SDS011;6418;50.824;4.718;2022-10-16T14:03:23;8.23;;;2.67;;
12707;SDS011;6418;50.824;4.718;2022-10-16T14:05:51;3.80;;;2.10;;
12707;SDS011;6418;50.824;4.718;2022-10-16T14:08:19;4.30;;;2.33;;
12707;SDS011;6418;50.824;4.718;2022-10-16T14:10:48;4.47;;;1.90;;
12707;SDS011;6418;50.824;4.718;2022-10-16T14:13:19;7.70;;;2.60;;
12707;SDS011;6418;50.824;4.718;2022-10-16T14:15:55;4.23;;;2.07;;
12707;SDS011;6418;50.824;4.718;2022-10-16T14:18:24;6.00;;;1.80;;
12707;SDS011;6418;50.824;4.718;2022-10-16T14:20:53;6.37;;;2.40;;
12707;SDS011;6418;50.824;4.718;2022-10-16T14:23:21;3.97;;;1.97;;
12707;SDS011;6418;50.824;4.718;2022-10-16T14:25:51;5.80;;;2.30;;
12707;SDS011;6418;50.824;4.718;2022-10-16T14:28:20;6.60;;;2.23;;
12707;SDS011;6418;50.824;4.718;2022-10-16T14:30:52;4.77;;;1.87;;
12707;SDS011;6418;50.824;4.718;2022-10-16T14:33:21;4.57;;;1.97;;
12707;SDS011;6418;50.824;4.718;2022-10-16T14:36:00;6.00;;;2.20;;
12707;SDS011;6418;50.824;4.718;2022-10-16T14:38:29;4.57;;;1.93;;
12707;SDS011;6418;50.824;4.718;2022-10-16T14:40:58;4.90;;;2.40;;
12707;SDS011;6418;50.824;4.718;2022-10-16T14:43:29;8.03;;;2.23;;
12707;SDS011;6418;50.824;4.718;2022-10-16T14:45:59;7.20;;;2.40;;
12707;SDS011;6418;50.824;4.718;2022-10-16T14:48:27;5.03;;;2.33;;
12707;SDS011;6418;50.824;4.718;2022-10-16T14:50:54;6.90;;;2.30;;
12707;SDS011;6418;50.824;4.718;2022-10-16T14:53:21;3.03;;;1.83;;
12707;SDS011;6418;50.824;4.718;2022-10-16T14:55:48;5.13;;;2.30;;
12707;SDS011;6418;50.824;4.718;2022-10-16T14:58:15;4.90;;;2.17;;
12707;SDS011;6418;50.824;4.718;2022-10-16T15:00:45;6.87;;;2.07;;
12707;SDS011;6418;50.824;4.718;2022-10-16T15:03:13;4.57;;;1.90;;
12707;SDS011;6418;50.824;4.718;2022-10-16T15:05:40;6.07;;;2.27;;
12707;SDS011;6418;50.824;4.718;2022-10-16T15:08:07;3.07;;;2.13;;
12707;SDS011;6418;50.824;4.718;2022-10-16T15:10:35;4.97;;;2.30;;
12707;SDS011;6418;50.824;4.718;2022-10-16T15:13:05;5.53;;;2.50;;
12707;SDS011;6418;50.824;4.718;2022-10-16T15:15:36;6.80;;;2.77;;
12707;SDS011;6418;50.824;4.718;2022-10-16T15:18:08;6.40;;;2.93;;
12707;SDS011;6418;50.824;4.718;2022-10-16T15:20:35;7.70;;;2.83;;